Terminal Aerodrome Forecast
Issued by NWS

Home | Current Version | Previous Version | Text Only | Print | Product List | Glossary Off
Versions: 1 2 3 4 5 6 7 8 9 10 11 12 13 14

000
FTUS43 KGRB 181700
TAFATW
TAF
KATW 181720Z 1818/1918 34007KT P6SM SCT030 SCT090
     FM182200 04009G15KT P6SM SCT090 SCT250
     FM190100 07008KT P6SM SCT090 BKN250
     FM190700 08007KT P6SM SCT080 BKN140
     FM191500 14013G18KT P6SM FEW035 BKN120=

USA.gov is the U.S. government's official web portal to all federal, state and local government web resources and services.